• Join FlightAware (Why Join?)
  • Login
  • US Flag 
02:12PM EST


 

Airport Tracker/Info


-or-


 

Live Flight TrackerFlight Track Log ✈ N680AN ✈ 04-May-2013 ✈ TJSJ / SJU - KMIA

Flight Track Log - Related Links

Times and Time Zones

All times are in EDT time to prevent confusion due to time zone crossing. See the N680AN flight status page for this flight to view local times or setup timezone preferences in your user account.

Time Position Orientation Groundspeed Altitude Reporting Facility
EDT Latitude Longitude Course Direction KTS MPH feet Rate Location/Type
12:17PM 18.4333 -65.9667 317° Northwest 170 196 1,300  Level San Juan Center
12:18PM 18.4833 -65.9833 342° North 250 288 3,000 2,280 Climbing San Juan Center
12:19PM 18.6554 -66.2091 312° West  Level FlightAware Approximate
12:19PM 18.5667 -66.0167 339° North 290 334 5,900  Level San Juan Center
12:20PM 18.7234 -66.2885 312° West  Level FlightAware Approximate
12:20PM 18.6167 -66.0833 308° West 290 334 8,600  Level San Juan Center
12:21PM 18.7963 -66.3629 317° Northwest  Level FlightAware Approximate
12:21PM 18.6667 -66.1500 308° West 310 357 10,800  Level San Juan Center
12:22PM 18.8699 -66.4365 317° Northwest  Level FlightAware Approximate
12:22PM 18.7167 -66.2167 308° West 340 391 12,200  Level San Juan Center
12:23PM 18.7833 -66.3000 310° West 360 414 14,400 2,100 Climbing San Juan Center
12:24PM 18.8500 -66.3833 310° West 370 426 16,500 2,040 Climbing San Juan Center
12:25PM 18.9333 -66.4833 311° West 390 449 18,600 2,220 Climbing San Juan Center
12:26PM 19.0000 -66.5667 310° West 380 437 21,000 2,160 Climbing San Juan Center
12:27PM 19.0667 -66.6500 310° West 400 460 23,000 1,800 Climbing San Juan Center
12:28PM 19.1500 -66.7500 311° West 410 472 24,700 1,500 Climbing San Juan Center
12:29PM 19.2000 -66.8333 302° West 410 472 26,100 1,500 Climbing San Juan Center
12:30PM 19.2833 -66.9333 311° West 430 495 27,800 1,440 Climbing San Juan Center
12:31PM 19.3667 -67.0333 311° West 450 518 29,100 1,500 Climbing San Juan Center
12:32PM 19.4500 -67.1333 311° West 440 506 30,800 1,800 Climbing San Juan Center
12:33PM 19.5167 -67.2333 305° West 440 506 32,800 1,980 Climbing San Juan Center
12:34PM 19.6000 -67.3333 312° West 430 495 34,800 1,800 Climbing San Juan Center
12:35PM 19.6667 -67.4333 305° West 420 483 36,400 1,380 Climbing San Juan Center
12:36PM 19.7500 -67.5333 312° West 420 483 37,600 780 Climbing San Juan Center
12:37PM 19.8167 -67.6167 310° West 410 472 38,000 180 Climbing San Juan Center
12:38PM 19.9000 -67.7167 312° West 400 460 38,000  Level San Juan Center
12:39PM 19.9667 -67.8000 310° West 400 460 38,000  Level San Juan Center
12:40PM 20.0333 -67.9000 305° West 400 460 38,000  Level San Juan Center
12:41PM 20.0967 -67.9856 308° West 400 460 38,000  Level Miami Center
12:42PM 20.1725 -68.0731 313° West 525 604 38,000  Level Miami Center
12:43PM 20.2419 -68.1636 309° West 448 516 38,000  Level Miami Center
12:44PM 20.3097 -68.2583 307° West 416 479 38,000  Level Miami Center
12:45PM 20.3831 -68.3467 312° West 403 464 38,000  Level Miami Center
12:46PM 20.4506 -68.4394 308° West 403 464 38,000  Level Miami Center
12:47PM 20.5000 -68.5425 297° West 403 464 38,000  Level Miami Center
12:48PM 20.5472 -68.6481 296° West 397 457 38,000  Level Miami Center
12:49PM 20.5964 -68.7511 297° West 397 457 38,000  Level Miami Center
12:50PM 20.6472 -68.8500 299° West 397 457 38,000  Level Miami Center
12:51PM 20.6983 -68.9553 297° West 397 457 38,000  Level Miami Center
12:52PM 20.7475 -69.0586 297° West 397 457 38,000  Level Miami Center
12:53PM 20.7942 -69.1622 296° West 397 457 38,000  Level Miami Center
12:54PM 20.8450 -69.2636 298° West 397 457 38,000  Level Miami Center
12:55PM 20.8961 -69.3672 298° West 397 457 38,000  Level Miami Center
12:56PM 20.9489 -69.4706 299° West 397 457 38,000  Level Miami Center
12:57PM 20.9956 -69.5747 296° West 397 457 38,000  Level Miami Center
12:58PM 21.0461 -69.6783 298° West 397 457 38,000  Level Miami Center
12:59PM 21.0947 -69.7803 297° West 397 457 38,000  Level Miami Center
01:00PM 21.1431 -69.8819 297° West 397 457 38,000  Level Miami Center
01:01PM 21.1917 -69.9861 297° West 397 457 38,000  Level Miami Center
01:02PM 21.2419 -70.0881 298° West 392 451 38,000  Level Miami Center
01:03PM 21.2903 -70.1925 296° West 392 451 38,000  Level Miami Center
01:04PM 21.3403 -70.2922 298° West 392 451 38,000  Level Miami Center
01:05PM 21.3886 -70.3947 297° West 387 445 38,000  Level Miami Center
01:06PM 21.4364 -70.4947 297° West 387 445 38,000  Level Miami Center
01:07PM 21.4844 -70.5972 297° West 382 440 38,000  Level Miami Center
01:08PM 21.5325 -70.6975 297° West 382 440 38,000  Level Miami Center
01:09PM 21.5803 -70.7978 297° West 382 440 38,000  Level Miami Center
01:10PM 21.6300 -70.9003 298° West 382 440 38,000  Level Miami Center
01:11PM 21.6686 -70.9811 297° West 382 440 38,000  Level Miami Center
01:12PM 21.7256 -71.1058 296° West 382 440 38,000  Level Miami Center
01:13PM 21.7711 -71.2089 295° West 382 440 38,000  Level Miami Center
01:14PM 21.8186 -71.3097 297° West 382 440 38,000  Level Miami Center
01:15PM 21.8639 -71.4106 296° West 382 440 38,000  Level Miami Center
01:16PM 21.9092 -71.5092 296° West 382 440 38,000  Level Miami Center
01:17PM 21.9544 -71.6125 295° West 382 440 38,000  Level Miami Center
01:18PM 22.0017 -71.7114 297° West 382 440 38,000  Level Miami Center
01:19PM 22.0469 -71.8125 296° West 382 440 38,000  Level Miami Center
01:20PM 22.0939 -71.9139 297° West 377 434 38,000  Level Miami Center
01:21PM 22.1389 -72.0131 296° West 377 434 38,000  Level Miami Center
01:22PM 22.1858 -72.1142 297° West 377 434 38,000  Level Miami Center
01:23PM 22.2286 -72.2136 295° West 377 434 38,000  Level Miami Center
01:24PM 22.2756 -72.3128 297° West 377 434 38,000  Level Miami Center
01:25PM 22.3244 -72.4144 297° West 377 434 38,000  Level Miami Center
01:26PM 22.3672 -72.5183 294° West 377 434 38,000  Level Miami Center
01:27PM 22.4158 -72.6200 297° West 382 440 38,000  Level Miami Center
01:28PM 22.4606 -72.7242 295° West 382 440 38,000  Level Miami Center
01:29PM 22.5050 -72.8239 296° West 377 434 38,000  Level Miami Center
01:30PM 22.5514 -72.9236 297° West 377 434 38,000  Level Miami Center
01:31PM 22.5958 -73.0281 295° West 377 434 38,000  Level Miami Center
01:32PM 22.6403 -73.1281 296° West 377 434 38,000  Level Miami Center
01:33PM 22.6783 -73.2303 292° West 371 427 38,000  Level Miami Center
01:34PM 22.7225 -73.3328 295° West 376 433 38,000  Level Miami Center
01:35PM 22.7706 -73.4306 298° West 376 433 38,000  Level Miami Center
01:36PM 22.8125 -73.5353 294° West 376 433 38,000  Level Miami Center
01:37PM 22.8567 -73.6356 296° West 376 433 38,000  Level Miami Center
01:38PM 22.9025 -73.7381 296° West 376 433 38,000  Level Miami Center
01:39PM 22.9486 -73.8383 297° West 376 433 38,000  Level Miami Center
01:40PM 22.9922 -73.9389 295° West 376 433 38,000  Level Miami Center
01:41PM 23.0381 -74.0417 296° West 376 433 38,000  Level Miami Center
01:42PM 23.0858 -74.1400 298° West 376 433 38,000  Level Miami Center
01:43PM 23.1294 -74.2386 296° West 376 433 38,000  Level Miami Center
01:44PM 23.1769 -74.3392 297° West 376 433 38,000  Level Miami Center
01:45PM 23.2206 -74.4400 295° West 376 433 38,000  Level Miami Center
01:46PM 23.2681 -74.5408 297° West 376 433 38,000  Level Miami Center
01:47PM 23.3114 -74.6419 295° West 376 433 38,000  Level Miami Center
01:48PM 23.3547 -74.7431 295° West 376 433 38,000  Level Miami Center
01:49PM 23.4000 -74.8442 296° West 376 433 38,000  Level Miami Center
01:50PM 23.4431 -74.9475 294° West 376 433 38,000  Level Miami Center
01:51PM 23.4817 -75.0353 296° West 376 433 38,000  Level Miami Center
01:52PM 23.5247 -75.1367 295° West 376 433 38,000  Level Miami Center
01:53PM 23.5697 -75.2358 296° West 371 427 38,000  Level Miami Center
01:54PM 23.6169 -75.3486 295° West 376 433 38,000  Level Miami Center
01:55PM 23.6597 -75.4500 295° West 376 433 38,000  Level Miami Center
01:56PM 23.7067 -75.5494 297° West 376 433 38,000  Level Miami Center
01:57PM 23.7514 -75.6533 295° West 376 433 38,000  Level Miami Center
01:58PM 23.7939 -75.7553 295° West 376 433 38,000  Level Miami Center
01:59PM 23.8364 -75.8594 294° West 376 433 38,000  Level Miami Center
02:00PM 23.8789 -75.9636 294° West 376 433 38,000  Level Miami Center
02:01PM 23.9233 -76.0678 295° West 376 433 38,000  Level Miami Center
02:02PM 23.9658 -76.1719 294° West 376 433 38,000  Level Miami Center
02:03PM 24.0100 -76.2764 295° West 376 433 38,000  Level Miami Center
02:04PM 24.0522 -76.3786 294° West 376 433 38,000  Level Miami Center
02:05PM 24.0964 -76.4856 294° West 376 433 38,000  Level Miami Center
02:06PM 24.1383 -76.5925 293° West 381 438 38,000  Level Miami Center
02:07PM 24.1761 -76.6833 295° West 381 438 38,000  Level Miami Center
02:08PM 24.2181 -76.7883 294° West 376 433 38,000  Level Miami Center
02:09PM 24.2642 -76.8953 295° West 382 440 38,000  Level Miami Center
02:10PM 24.3081 -77.0047 294° West 382 440 38,000  Level Miami Center
02:11PM 24.3497 -77.1119 293° West 382 440 38,000  Level Miami Center
02:12PM 24.3933 -77.2194 294° West 387 445 38,000  Level Miami Center
02:13PM 24.4369 -77.3222 295° West 387 445 38,000  Level Miami Center
02:14PM 24.4783 -77.4297 293° West 382 440 38,000  Level Miami Center
02:15PM 24.5217 -77.5328 295° West 382 440 38,000  Level Miami Center
02:16PM 24.5650 -77.6494 292° West 376 433 38,000  Level Miami Center
02:17PM 24.6083 -77.7550 294° West 376 433 38,000  Level Miami Center
02:18PM 24.6494 -77.8581 294° West 376 433 38,000  Level Miami Center
02:19PM 24.6906 -77.9658 293° West 376 433 38,000  Level Miami Center
02:20PM 24.7336 -78.0692 295° West 376 433 38,000 -60 Level Miami Center
02:21PM 24.7744 -78.1725 294° West 376 433 37,900 -1,200 Descending Miami Center
02:22PM 24.8175 -78.2806 294° West 381 438 35,600 -2,460 Descending Miami Center
02:23PM 24.8622 -78.3911 294° West 386 444 33,000 -2,760 Descending Miami Center
02:24PM 24.9031 -78.4994 293° West 386 444 30,100 -2,700 Descending Miami Center
02:25PM 24.9478 -78.6100 294° West 391 450 27,600 -2,100 Descending Miami Center
02:26PM 24.9964 -78.7231 295° West 398 458 26,000 -1,500 Descending Miami Center
02:27PM 25.0369 -78.8314 292° West 392 451 24,700 -1,080 Descending Miami Center
02:28PM 25.0775 -78.9239 296° West 365 420 23,900 -1,080 Descending Miami Center
02:29PM 25.1119 -79.0000 297° West 337 388 22,600 -1,500 Descending Miami Center
02:30PM 25.1419 -79.0903 290° West 322 371 21,000 -1,680 Descending Miami Center
02:31PM 25.1781 -79.1758 295° West 309 356 19,300 -1,740 Descending Miami Center
02:32PM 25.2103 -79.2614 293° West 309 356 17,600 -1,680 Descending Miami Center
02:33PM 25.2422 -79.3469 292° West 309 356 16,000 -1,680 Descending Miami Center
02:34PM 25.2681 -79.4186 292° West 300 345 14,700 -1,620 Descending Miami Center
02:35PM 25.3042 -79.5044 295° West 291 335 13,100 -1,500 Descending Miami Center
02:36PM 25.3342 -79.5856 292° West 283 326 11,700 -1,500 Descending Miami Center
02:37PM 25.3639 -79.6689 292° West 277 319 10,100 -1,500 Descending Miami Center
02:38PM 25.4108 -79.7322 309° West 272 313 8,700 -1,440 Descending Miami Center
02:39PM 25.4617 -79.8025 309° West 267 307 7,200 -1,380 Descending Miami Center
02:40PM 25.5086 -79.8589 313° West 266 306 5,800 -1,440 Descending Miami Center
02:41PM 25.5511 -79.9244 306° West 254 292 4,300 -1,440 Descending Miami Center
02:42PM 25.5958 -79.9786 312° West 250 288 3,000 -600 Descending Miami Center
02:43PM 25.6444 -80.0467 308° West 254 292 3,100  Climbing Miami Center
02:44PM 25.6869 -80.1075 308° West 251 289 3,100 -300 Level Miami Center
02:45PM 25.7236 -80.1569 309° West 199 229 2,600 -540 Descending Miami Center